createdAt,value
2023-01-26T00:00:52.725Z,101384.49
2023-01-26T00:03:25.766Z,101381.92
2023-01-26T00:05:55.257Z,101377.70
2023-01-26T00:08:24.645Z,101386.25
2023-01-26T00:10:55.978Z,101383.75
2023-01-26T00:13:26.021Z,101383.84
2023-01-26T00:15:55.011Z,101377.02
2023-01-26T00:18:26.052Z,101378.77
2023-01-26T00:20:57.897Z,101376.21
2023-01-26T00:23:27.785Z,101372.78
2023-01-26T00:25:57.334Z,101372.78
2023-01-26T00:28:27.341Z,101370.28
2023-01-26T00:31:04.331Z,101373.59
2023-01-26T00:33:33.729Z,101372.84
2023-01-26T00:36:02.782Z,101375.41
2023-01-26T00:38:32.162Z,101368.61
2023-01-26T00:41:01.157Z,101368.61
2023-01-26T00:43:31.554Z,101367.71
2023-01-26T00:46:00.429Z,101366.05
2023-01-26T00:48:29.404Z,101358.35
2023-01-26T00:50:58.717Z,101361.78
2023-01-26T00:53:28.355Z,101354.14
2023-01-26T00:55:57.765Z,101356.80
2023-01-26T00:58:27.568Z,101353.34
2023-01-26T01:00:58.804Z,101353.34
2023-01-26T01:03:27.921Z,101360.23
2023-01-26T01:05:56.724Z,101361.12
2023-01-26T01:08:28.129Z,101353.34
2023-01-26T01:11:05.768Z,101360.17
2023-01-26T01:13:34.845Z,101355.84
2023-01-26T01:16:08.120Z,101356.80
2023-01-26T01:18:41.323Z,101356.80
2023-01-26T01:21:14.562Z,101352.63
2023-01-26T01:23:44.947Z,101343.23
2023-01-26T01:26:15.002Z,101346.76
2023-01-26T01:28:45.785Z,101341.53
2023-01-26T01:31:17.024Z,101337.36
2023-01-26T01:33:46.127Z,101325.34
2023-01-26T01:36:17.165Z,101311.65
2023-01-26T01:38:47.829Z,101313.32
2023-01-26T01:41:19.647Z,101308.19
2023-01-26T01:43:49.486Z,101298.77
2023-01-26T01:46:29.439Z,101301.33
2023-01-26T01:49:02.768Z,101293.64
2023-01-26T01:51:38.074Z,101293.64
2023-01-26T01:54:15.655Z,101288.51
2023-01-26T01:56:48.542Z,101287.61
2023-01-26T01:59:20.273Z,101284.19
2023-01-26T02:01:51.383Z,101278.25
2023-01-26T02:04:23.705Z,101271.36
2023-01-26T02:06:55.983Z,101272.16
2023-01-26T02:09:49.883Z,101275.44
2023-01-26T02:12:21.961Z,101276.34
2023-01-26T02:14:52.803Z,101278.01
2023-01-26T02:17:27.206Z,101270.31
2023-01-26T02:20:05.336Z,101274.58
2023-01-26T02:22:42.570Z,101268.64
2023-01-26T02:25:25.788Z,101263.57
2023-01-26T02:27:55.525Z,101264.47
2023-01-26T02:30:26.763Z,101262.77
2023-01-26T02:32:57.356Z,101255.16
2023-01-26T02:35:27.185Z,101248.27
2023-01-26T02:37:57.433Z,101251.76
2023-01-26T02:40:38.334Z,101258.59
2023-01-26T02:43:08.122Z,101246.58
2023-01-26T02:45:41.313Z,101244.01
2023-01-26T02:48:11.604Z,101243.20
2023-01-26T02:50:42.656Z,101241.50
2023-01-26T02:53:14.701Z,101239.83
2023-01-26T02:55:44.362Z,101238.13
2023-01-26T02:58:16.688Z,101237.32
2023-01-26T03:00:45.958Z,101229.63
2023-01-26T03:03:18.930Z,101223.69
2023-01-26T03:05:48.371Z,101219.45
2023-01-26T03:08:17.672Z,101220.37
2023-01-26T03:10:46.989Z,101222.94
2023-01-26T03:13:16.648Z,101218.70
2023-01-26T03:15:52.087Z,101213.58
2023-01-26T03:18:41.226Z,101215.25
2023-01-26T03:21:33.122Z,101212.68
2023-01-26T03:24:22.331Z,101205.08
2023-01-26T03:27:13.447Z,101203.31
2023-01-26T03:29:42.804Z,101197.38
2023-01-26T03:32:13.457Z,101194.81
2023-01-26T03:34:44.295Z,101196.57
2023-01-26T03:37:13.799Z,101188.88
2023-01-26T03:40:14.095Z,101187.92
2023-01-26T03:43:01.927Z,101179.33
2023-01-26T03:45:49.894Z,101183.66
2023-01-26T03:48:38.823Z,101183.66
2023-01-26T03:51:27.024Z,101177.72
2023-01-26T03:54:15.057Z,101172.59
2023-01-26T03:56:44.687Z,101173.48
2023-01-26T03:59:17.188Z,101170.97
2023-01-26T04:02:06.989Z,101166.73
2023-01-26T04:04:56.204Z,101163.33
2023-01-26T04:07:48.831Z,101159.91
2023-01-26T04:10:18.299Z,101161.66
2023-01-26T04:13:05.910Z,101155.64
2023-01-26T04:15:55.056Z,101151.34
2023-01-26T04:18:43.088Z,101154.78
2023-01-26T04:21:29.242Z,101160.77
2023-01-26T04:24:09.602Z,101164.23
2023-01-26T04:26:42.049Z,101170.22
2023-01-26T04:29:16.845Z,101163.42
2023-01-26T04:31:47.800Z,101168.61
2023-01-26T04:34:21.459Z,101159.15
2023-01-26T04:36:51.159Z,101170.22
2023-01-26T04:39:24.364Z,101160.77
2023-01-26T04:41:56.843Z,101165.90
2023-01-26T04:44:27.806Z,101154.78
2023-01-26T04:47:08.018Z,101158.14
2023-01-26T04:49:37.581Z,101160.66
2023-01-26T04:52:08.640Z,101163.33
2023-01-26T04:54:38.822Z,101163.33
2023-01-26T04:57:10.802Z,101154.83
2023-01-26T04:59:49.253Z,101157.48
2023-01-26T05:02:18.705Z,101148.89
2023-01-26T05:04:50.522Z,101151.45
2023-01-26T05:07:19.678Z,101142.00
2023-01-26T05:09:49.389Z,101146.33
2023-01-26T05:12:42.207Z,101143.76
2023-01-26T05:15:41.681Z,101146.33
2023-01-26T05:18:35.988Z,101141.20
2023-01-26T05:21:16.421Z,101139.52
2023-01-26T05:23:51.739Z,101133.58
2023-01-26T05:26:39.295Z,101135.25
2023-01-26T05:29:15.005Z,101139.52
2023-01-26T05:31:46.330Z,101137.82
2023-01-26T05:34:15.991Z,101137.02
2023-01-26T05:36:46.073Z,101135.25
2023-01-26T05:39:17.797Z,101134.45
2023-01-26T05:41:46.882Z,101136.20
2023-01-26T05:44:39.492Z,101131.07
2023-01-26T05:47:16.314Z,101128.51
2023-01-26T05:49:48.940Z,101133.64
2023-01-26T05:52:23.387Z,101135.39
2023-01-26T05:54:53.406Z,101146.52
2023-01-26T05:57:23.135Z,101145.71
2023-01-26T05:59:57.565Z,101143.95
2023-01-26T06:02:30.826Z,101147.41
2023-01-26T06:05:04.089Z,101156.87
2023-01-26T06:07:39.255Z,101151.73
2023-01-26T06:10:17.062Z,101149.17
2023-01-26T06:13:13.070Z,101152.59
2023-01-26T06:16:02.481Z,101144.04
2023-01-26T06:18:33.885Z,101142.28
2023-01-26T06:21:04.112Z,101144.77
2023-01-26T06:23:36.068Z,101150.79
2023-01-26T06:26:08.334Z,101149.08
2023-01-26T06:28:38.801Z,101143.90
2023-01-26T06:31:10.257Z,101145.66
2023-01-26T06:33:42.132Z,101148.22
2023-01-26T06:36:16.607Z,101143.09
2023-01-26T06:38:50.165Z,101142.28
2023-01-26T06:41:20.688Z,101140.52
2023-01-26T06:43:50.746Z,101144.77
2023-01-26T06:46:20.899Z,101143.09
2023-01-26T06:48:51.797Z,101137.96
2023-01-26T06:51:58.421Z,101138.83
2023-01-26T06:54:53.463Z,101135.39
2023-01-26T06:57:25.866Z,101127.75
2023-01-26T07:00:18.917Z,101135.45
2023-01-26T07:03:03.834Z,101137.15
2023-01-26T07:05:33.891Z,101131.13
2023-01-26T07:08:06.454Z,101126.08
2023-01-26T07:10:37.011Z,101135.45
2023-01-26T07:13:08.860Z,101131.13
2023-01-26T07:15:38.021Z,101127.70
2023-01-26T07:18:08.452Z,101127.64
2023-01-26T07:20:37.806Z,101125.94
2023-01-26T07:23:06.999Z,101131.13
2023-01-26T07:25:36.144Z,101125.08
2023-01-26T07:28:09.681Z,101120.86
2023-01-26T07:30:38.943Z,101112.30
2023-01-26T07:33:08.084Z,101118.38
2023-01-26T07:35:37.337Z,101120.14
2023-01-26T07:38:07.195Z,101116.68
2023-01-26T07:40:36.575Z,101115.88
2023-01-26T07:43:06.239Z,101108.17
2023-01-26T07:45:52.402Z,101109.88
2023-01-26T07:48:23.164Z,101112.44
2023-01-26T07:50:52.319Z,101109.06
2023-01-26T07:53:22.395Z,101106.50
2023-01-26T07:55:51.769Z,101111.73
2023-01-26T07:58:21.331Z,101108.45
2023-01-26T08:00:50.522Z,101109.36
2023-01-26T08:03:19.942Z,101112.88
2023-01-26T08:05:48.860Z,101115.53
2023-01-26T08:08:19.627Z,101109.64
2023-01-26T08:10:51.280Z,101115.72
2023-01-26T08:13:34.449Z,101111.50
2023-01-26T08:16:05.950Z,101108.12
2023-01-26T08:18:35.742Z,101108.12
2023-01-26T08:21:05.608Z,101103.12
2023-01-26T08:23:34.856Z,101108.39
2023-01-26T08:26:07.419Z,101111.95
2023-01-26T08:28:36.835Z,101109.52
2023-01-26T08:31:07.489Z,101112.09
2023-01-26T08:33:37.093Z,101106.95
2023-01-26T08:36:12.663Z,101101.01
2023-01-26T08:38:45.240Z,101101.92
2023-01-26T08:41:16.178Z,101099.36
2023-01-26T08:43:46.283Z,101096.92
2023-01-26T08:46:17.200Z,101094.41
2023-01-26T08:48:46.379Z,101101.24
2023-01-26T08:51:15.934Z,101110.66
2023-01-26T08:53:45.353Z,101103.81
2023-01-26T08:56:28.142Z,101117.51
2023-01-26T08:58:57.448Z,101115.02
2023-01-26T09:01:26.424Z,101115.97
2023-01-26T09:03:56.112Z,101121.97
2023-01-26T09:06:27.210Z,101116.83
2023-01-26T09:08:57.088Z,101116.88
2023-01-26T09:11:26.226Z,101121.28
2023-01-26T09:13:56.562Z,101120.48
2023-01-26T09:16:26.708Z,101130.80
2023-01-26T09:18:55.847Z,101126.42
2023-01-26T09:21:25.081Z,101130.66
2023-01-26T09:23:55.565Z,101131.56
2023-01-26T09:26:24.699Z,101140.94
2023-01-26T09:28:53.706Z,101133.13
2023-01-26T09:31:23.946Z,101127.91
2023-01-26T09:33:54.438Z,101127.16
2023-01-26T09:36:23.756Z,101122.09
2023-01-26T09:38:53.773Z,101124.66
2023-01-26T09:41:45.661Z,101121.28
2023-01-26T09:44:21.018Z,101116.20
2023-01-26T09:47:04.883Z,101110.20
2023-01-26T09:49:47.163Z,101111.87
2023-01-26T09:52:22.842Z,101104.17
2023-01-26T09:54:55.156Z,101104.13
2023-01-26T09:57:32.764Z,101104.98
2023-01-26T10:00:08.969Z,101107.50
2023-01-26T10:02:51.897Z,101098.98
2023-01-26T10:05:30.734Z,101100.80
2023-01-26T10:08:09.395Z,101090.66
2023-01-26T10:10:42.838Z,101099.30
2023-01-26T10:13:17.104Z,101091.70
2023-01-26T10:15:52.094Z,101087.63
2023-01-26T10:18:26.296Z,101078.34
2023-01-26T10:20:58.383Z,101078.48
2023-01-26T10:23:30.231Z,101080.15
2023-01-26T10:26:11.623Z,101083.53
2023-01-26T10:28:42.848Z,101074.92
2023-01-26T10:31:17.273Z,101068.13
2023-01-26T10:33:52.168Z,101064.73
2023-01-26T10:36:22.867Z,101065.55
2023-01-26T10:38:52.604Z,101054.47
2023-01-26T10:41:28.181Z,101064.82
2023-01-26T10:43:59.565Z,101056.98
2023-01-26T10:46:38.300Z,101059.60
2023-01-26T10:49:19.306Z,101055.36
2023-01-26T10:52:06.945Z,101055.41
2023-01-26T10:54:36.581Z,101050.39
2023-01-26T10:57:15.129Z,101042.81
2023-01-26T10:59:53.551Z,101033.52
2023-01-26T11:02:27.712Z,101033.65
2023-01-26T11:05:18.538Z,101021.70
2023-01-26T11:07:54.123Z,101022.72
2023-01-26T11:10:28.174Z,101010.91
2023-01-26T11:13:18.231Z,101017.84
2023-01-26T11:15:53.071Z,101012.70
2023-01-26T11:18:32.794Z,101013.52
2023-01-26T11:21:11.134Z,101013.48
2023-01-26T11:23:58.836Z,101008.34
2023-01-26T11:27:02.964Z,101000.58
2023-01-26T11:30:06.515Z,100995.48
2023-01-26T11:32:46.467Z,100990.30
2023-01-26T11:35:31.928Z,100989.48
2023-01-26T11:38:19.511Z,100991.24
2023-01-26T11:40:54.600Z,100984.44
2023-01-26T11:43:48.654Z,100982.76
2023-01-26T11:46:39.203Z,100978.55
2023-01-26T11:49:25.683Z,100975.26
2023-01-26T11:52:07.715Z,100975.38
2023-01-26T11:54:52.917Z,100970.35
2023-01-26T11:57:28.930Z,100973.78
2023-01-26T12:00:04.830Z,100976.31
2023-01-26T12:02:54.233Z,100972.77
2023-01-26T12:05:28.479Z,100964.16
2023-01-26T12:08:12.151Z,100967.62
2023-01-26T12:10:48.927Z,100964.16
2023-01-26T12:13:35.089Z,100965.14
2023-01-26T12:16:13.716Z,100963.62
2023-01-26T12:19:05.477Z,100956.06
2023-01-26T12:21:43.455Z,100953.49
2023-01-26T12:24:43.510Z,100945.90
2023-01-26T12:27:19.522Z,100949.41
2023-01-26T12:29:52.779Z,100954.55
2023-01-26T12:32:22.636Z,100945.98
2023-01-26T12:34:52.027Z,100958.83
2023-01-26T12:37:42.250Z,100954.47
2023-01-26T12:40:30.037Z,100949.44
2023-01-26T12:43:11.482Z,100958.09
2023-01-26T12:45:43.267Z,100960.50
2023-01-26T12:48:19.255Z,100955.29
2023-01-26T12:50:52.959Z,100953.49
2023-01-26T12:53:30.278Z,100949.13
2023-01-26T12:56:08.833Z,100954.20
2023-01-26T12:58:43.158Z,100953.99
2023-01-26T13:01:15.011Z,100951.31
2023-01-26T13:03:51.924Z,100951.31
2023-01-26T13:06:25.641Z,100954.66
2023-01-26T13:09:05.630Z,100953.77
2023-01-26T13:11:48.707Z,100948.63
2023-01-26T13:14:34.563Z,100945.97
2023-01-26T13:17:56.715Z,100941.64
2023-01-26T13:20:45.200Z,100943.23
2023-01-26T13:23:52.862Z,100934.63
2023-01-26T13:26:44.791Z,100937.94
2023-01-26T13:29:35.620Z,100936.11
2023-01-26T13:32:36.533Z,100930.88
2023-01-26T13:35:13.043Z,100926.48
2023-01-26T13:37:50.241Z,100924.73
2023-01-26T13:40:27.012Z,100927.22
2023-01-26T13:43:06.090Z,100934.84
2023-01-26T13:45:48.938Z,100931.30
2023-01-26T13:48:28.920Z,100926.98
2023-01-26T13:51:02.471Z,100923.55
2023-01-26T13:53:35.825Z,100933.01
2023-01-26T13:56:09.786Z,100931.99
2023-01-26T13:58:39.461Z,100926.86
2023-01-26T14:01:14.110Z,100926.81
2023-01-26T14:03:44.298Z,100927.51
2023-01-26T14:06:20.437Z,100925.70
2023-01-26T14:08:55.308Z,100937.61
2023-01-26T14:11:28.034Z,100939.27
2023-01-26T14:14:00.903Z,100936.62
2023-01-26T14:16:39.756Z,100924.52
2023-01-26T14:19:16.340Z,100927.82
2023-01-26T14:21:51.691Z,100927.73
2023-01-26T14:24:31.439Z,100928.55
2023-01-26T14:27:02.111Z,100926.67
2023-01-26T14:29:39.869Z,100928.25
2023-01-26T14:32:20.176Z,100927.31
2023-01-26T14:34:57.083Z,100932.45
2023-01-26T14:37:29.201Z,100928.20
2023-01-26T14:40:22.358Z,100918.67
2023-01-26T14:42:54.288Z,100919.48
2023-01-26T14:45:30.164Z,100915.24
2023-01-26T14:48:03.702Z,100917.73
2023-01-26T14:50:34.369Z,100916.83
2023-01-26T14:53:05.309Z,100915.94
2023-01-26T14:55:36.967Z,100914.18
2023-01-26T14:58:16.072Z,100909.94
2023-01-26T15:00:49.510Z,100902.98
2023-01-26T15:03:27.400Z,100908.11
2023-01-26T15:06:31.922Z,100905.54
2023-01-26T15:09:05.223Z,100898.69
2023-01-26T15:12:11.439Z,100898.69
2023-01-26T15:14:50.203Z,100900.23
2023-01-26T15:17:36.521Z,100905.32
2023-01-26T15:20:26.057Z,100906.09
2023-01-26T15:22:56.167Z,100903.52
2023-01-26T15:25:27.078Z,100901.81
2023-01-26T15:27:59.211Z,100900.14
2023-01-26T15:30:31.501Z,100905.28
2023-01-26T15:33:01.590Z,100903.52
2023-01-26T15:35:32.800Z,100911.14
2023-01-26T15:38:03.294Z,100913.66
2023-01-26T15:40:33.042Z,100911.09
2023-01-26T15:43:15.470Z,100908.48
2023-01-26T15:45:51.303Z,100912.67
2023-01-26T15:48:24.343Z,100922.86
2023-01-26T15:50:53.612Z,100923.75
2023-01-26T15:53:23.353Z,100914.30
2023-01-26T15:55:55.332Z,100914.30
2023-01-26T15:58:25.071Z,100919.44
2023-01-26T16:00:56.298Z,100924.52
2023-01-26T16:03:25.439Z,100927.94
2023-01-26T16:05:54.828Z,100924.52
2023-01-26T16:08:24.324Z,100927.89
2023-01-26T16:10:59.061Z,100922.68
2023-01-26T16:13:28.465Z,100925.33
2023-01-26T16:15:57.709Z,100926.19
2023-01-26T16:18:27.315Z,100927.89
2023-01-26T16:20:56.571Z,100926.19
2023-01-26T16:23:28.477Z,100932.21
2023-01-26T16:25:57.739Z,100934.70
2023-01-26T16:28:27.999Z,100939.02
2023-01-26T16:31:01.446Z,100940.64
2023-01-26T16:33:31.639Z,100934.66
2023-01-26T16:36:01.725Z,100926.82
2023-01-26T16:38:30.846Z,100934.47
2023-01-26T16:41:00.634Z,100931.09
2023-01-26T16:43:30.487Z,100925.16
2023-01-26T16:45:59.801Z,100926.91
2023-01-26T16:48:33.986Z,100926.91
2023-01-26T16:51:19.163Z,100925.20
2023-01-26T16:53:49.319Z,100935.41
2023-01-26T16:56:22.036Z,100927.59
2023-01-26T16:58:52.000Z,100925.02
2023-01-26T17:01:24.932Z,100927.59
2023-01-26T17:03:55.966Z,100931.83
2023-01-26T17:06:26.985Z,100940.36
2023-01-26T17:08:56.294Z,100937.80
2023-01-26T17:11:29.235Z,100932.59
2023-01-26T17:14:03.421Z,100933.40
2023-01-26T17:16:38.910Z,100928.22
2023-01-26T17:19:09.559Z,100927.28
2023-01-26T17:21:39.155Z,100927.28
2023-01-26T17:24:10.183Z,100919.53
2023-01-26T17:26:39.469Z,100926.42
2023-01-26T17:29:12.942Z,100918.59
2023-01-26T17:31:42.077Z,100922.83
2023-01-26T17:34:13.713Z,100917.70
2023-01-26T17:36:46.505Z,100914.27
2023-01-26T17:39:19.601Z,100915.09
2023-01-26T17:41:48.882Z,100909.91
2023-01-26T17:44:21.220Z,100906.45
2023-01-26T17:46:50.443Z,100907.27
2023-01-26T17:49:21.455Z,100908.97
2023-01-26T17:51:50.444Z,100901.22
2023-01-26T17:54:20.574Z,100904.59
2023-01-26T17:56:50.464Z,100900.28
2023-01-26T17:59:21.109Z,100906.22
2023-01-26T18:01:50.189Z,100915.67
2023-01-26T18:04:24.127Z,100913.02
2023-01-26T18:06:55.998Z,100915.59
2023-01-26T18:09:29.609Z,100911.27
2023-01-26T18:11:59.277Z,100912.97
2023-01-26T18:14:32.346Z,100915.53
2023-01-26T18:17:02.715Z,100913.78
2023-01-26T18:19:31.993Z,100922.28
2023-01-26T18:22:02.439Z,100920.53
2023-01-26T18:24:32.404Z,100917.02
2023-01-26T18:27:01.957Z,100916.97
2023-01-26T18:29:32.955Z,100916.16
2023-01-26T18:32:03.371Z,100922.10
2023-01-26T18:34:32.956Z,100916.11
2023-01-26T18:37:03.174Z,100917.78
2023-01-26T18:39:32.939Z,100912.66
2023-01-26T18:42:04.553Z,100916.92
2023-01-26T18:44:34.148Z,100915.17
2023-01-26T18:47:05.116Z,100928.80
2023-01-26T18:49:34.476Z,100927.99
2023-01-26T18:52:05.706Z,100928.80
2023-01-26T18:54:35.716Z,100921.92
2023-01-26T18:57:04.996Z,100919.30
2023-01-26T18:59:34.601Z,100919.30
2023-01-26T19:02:04.346Z,100922.67
2023-01-26T19:04:33.695Z,100923.54
2023-01-26T19:07:03.326Z,100920.11
2023-01-26T19:09:35.416Z,100917.55
2023-01-26T19:12:05.937Z,100920.16
2023-01-26T19:14:35.473Z,100920.16
2023-01-26T19:17:04.683Z,100921.92
2023-01-26T19:19:34.080Z,100918.55
2023-01-26T19:22:03.104Z,100927.99
2023-01-26T19:24:32.228Z,100932.31
2023-01-26T19:27:03.613Z,100929.75
2023-01-26T19:29:32.656Z,100933.98
2023-01-26T19:32:01.791Z,100934.79
2023-01-26T19:34:32.228Z,100936.49
2023-01-26T19:37:02.222Z,100928.80
2023-01-26T19:39:34.560Z,100929.66
2023-01-26T19:42:03.753Z,100924.53
2023-01-26T19:44:32.812Z,100928.80
2023-01-26T19:47:02.148Z,100930.42
2023-01-26T19:49:31.141Z,100932.17
2023-01-26T19:52:00.609Z,100927.91
2023-01-26T19:54:29.747Z,100928.80
2023-01-26T19:56:58.991Z,100932.17
2023-01-26T19:59:28.466Z,100927.05
2023-01-26T20:01:57.768Z,100915.09
2023-01-26T20:04:30.021Z,100922.78
2023-01-26T20:07:01.518Z,100924.48
2023-01-26T20:09:34.526Z,100919.36
2023-01-26T20:12:05.755Z,100913.42
2023-01-26T20:14:36.078Z,100917.73
2023-01-26T20:17:05.243Z,100924.62
2023-01-26T20:19:35.191Z,100915.98
2023-01-26T20:22:04.489Z,100921.11
2023-01-26T20:24:33.857Z,100912.47
2023-01-26T20:27:03.720Z,100903.92
2023-01-26T20:29:32.885Z,100906.41
2023-01-26T20:32:03.102Z,100916.66
2023-01-26T20:34:32.895Z,100918.41
2023-01-26T20:37:03.606Z,100907.21
2023-01-26T20:39:34.622Z,100907.21
2023-01-26T20:42:03.977Z,100914.09
2023-01-26T20:44:34.402Z,100908.10
2023-01-26T20:47:04.581Z,100913.15
2023-01-26T20:49:34.630Z,100914.91
2023-01-26T20:52:07.520Z,100914.09
2023-01-26T20:54:37.212Z,100914.91
2023-01-26T20:57:09.595Z,100907.21
2023-01-26T20:59:40.259Z,100908.02
2023-01-26T21:02:20.821Z,100902.03
2023-01-26T21:04:50.524Z,100895.20
2023-01-26T21:07:23.094Z,100897.77
2023-01-26T21:09:53.310Z,100905.54
2023-01-26T21:12:28.341Z,100900.41
2023-01-26T21:14:57.764Z,100908.10
2023-01-26T21:17:27.706Z,100902.98
2023-01-26T21:19:57.785Z,100898.71
2023-01-26T21:22:28.287Z,100901.27
2023-01-26T21:25:00.253Z,100903.92
2023-01-26T21:27:31.842Z,100903.03
2023-01-26T21:30:01.598Z,100902.22
2023-01-26T21:32:33.369Z,100908.23
2023-01-26T21:35:03.803Z,100903.97
2023-01-26T21:37:33.130Z,100907.39
2023-01-26T21:40:02.676Z,100911.80
2023-01-26T21:42:33.573Z,100918.68
2023-01-26T21:45:21.188Z,100914.36
2023-01-26T21:48:10.401Z,100911.80
2023-01-26T21:51:13.624Z,100909.23
2023-01-26T21:53:43.114Z,100909.23
2023-01-26T21:56:14.109Z,100908.42
2023-01-26T21:58:58.557Z,100902.35
2023-01-26T22:01:28.830Z,100910.05
2023-01-26T22:03:59.927Z,100907.53
2023-01-26T22:06:30.689Z,100900.73
2023-01-26T22:09:00.293Z,100903.30
2023-01-26T22:11:29.607Z,100900.64
2023-01-26T22:13:59.480Z,100892.91
2023-01-26T22:16:29.077Z,100898.84
2023-01-26T22:18:59.203Z,100893.66
2023-01-26T22:21:28.555Z,100902.22
2023-01-26T22:24:01.667Z,100898.71
2023-01-26T22:26:34.609Z,100901.27
2023-01-26T22:29:04.999Z,100895.28
2023-01-26T22:31:37.799Z,100890.16
2023-01-26T22:34:10.192Z,100892.77
2023-01-26T22:36:40.721Z,100895.34
2023-01-26T22:39:13.572Z,100895.34
2023-01-26T22:41:44.281Z,100899.66
2023-01-26T22:44:14.014Z,100898.71
2023-01-26T22:46:46.432Z,100891.02
2023-01-26T22:49:16.122Z,100896.14
2023-01-26T22:51:45.302Z,100890.20
2023-01-26T22:54:15.352Z,100891.16
2023-01-26T22:56:45.345Z,100889.45
2023-01-26T22:59:15.528Z,100889.40
2023-01-26T23:01:45.314Z,100891.02
2023-01-26T23:04:17.277Z,100900.41
2023-01-26T23:06:46.639Z,100894.39
2023-01-26T23:09:15.691Z,100894.39
2023-01-26T23:11:44.617Z,100896.95
2023-01-26T23:14:13.815Z,100896.09
2023-01-26T23:16:43.363Z,100897.77
2023-01-26T23:19:12.545Z,100894.34
2023-01-26T23:21:41.893Z,100891.78
2023-01-26T23:24:11.062Z,100890.97
2023-01-26T23:26:40.255Z,100882.38
2023-01-26T23:29:09.341Z,100878.91
2023-01-26T23:31:38.673Z,100878.91
2023-01-26T23:34:07.745Z,100877.16
2023-01-26T23:36:37.015Z,100879.72
2023-01-26T23:39:07.648Z,100880.53
2023-01-26T23:41:36.761Z,100869.38
2023-01-26T23:44:06.173Z,100870.20
2023-01-26T23:46:35.347Z,100868.52
2023-01-26T23:49:04.799Z,100866.77
2023-01-26T23:51:33.763Z,100868.52
2023-01-26T23:54:02.851Z,100870.27
2023-01-26T23:56:31.981Z,100866.91
2023-01-26T23:59:01.156Z,100868.52
